sensor_id;sensor_type;location;lat;lon;timestamp;P1;durP1;ratioP1;P2;durP2;ratioP2
64387;SDS011;50709;52.648;4.764;2023-04-30T00:00:22;14.02;;;8.40;;
64387;SDS011;50709;52.648;4.764;2023-04-30T00:02:47;15.30;;;8.75;;
64387;SDS011;50709;52.648;4.764;2023-04-30T00:05:13;17.05;;;7.95;;
64387;SDS011;50709;52.648;4.764;2023-04-30T00:07:38;12.23;;;8.07;;
64387;SDS011;50709;52.648;4.764;2023-04-30T00:10:07;16.58;;;7.97;;
64387;SDS011;50709;52.648;4.764;2023-04-30T00:12:36;13.93;;;8.45;;
64387;SDS011;50709;52.648;4.764;2023-04-30T00:15:02;14.80;;;7.53;;
64387;SDS011;50709;52.648;4.764;2023-04-30T00:17:27;13.50;;;8.07;;
64387;SDS011;50709;52.648;4.764;2023-04-30T00:19:53;15.77;;;8.23;;
64387;SDS011;50709;52.648;4.764;2023-04-30T00:22:18;16.10;;;8.30;;
64387;SDS011;50709;52.648;4.764;2023-04-30T00:24:43;17.20;;;8.90;;
64387;SDS011;50709;52.648;4.764;2023-04-30T00:27:09;15.55;;;8.30;;
64387;SDS011;50709;52.648;4.764;2023-04-30T00:29:35;14.82;;;7.97;;
64387;SDS011;50709;52.648;4.764;2023-04-30T00:32:01;14.75;;;8.35;;
64387;SDS011;50709;52.648;4.764;2023-04-30T00:34:26;13.18;;;8.02;;
64387;SDS011;50709;52.648;4.764;2023-04-30T00:36:52;14.90;;;8.38;;
64387;SDS011;50709;52.648;4.764;2023-04-30T00:39:17;14.35;;;8.07;;
64387;SDS011;50709;52.648;4.764;2023-04-30T00:41:43;12.75;;;8.05;;
64387;SDS011;50709;52.648;4.764;2023-04-30T00:44:09;11.75;;;7.57;;
64387;SDS011;50709;52.648;4.764;2023-04-30T00:46:34;14.05;;;7.38;;
64387;SDS011;50709;52.648;4.764;2023-04-30T00:48:59;12.32;;;7.50;;
64387;SDS011;50709;52.648;4.764;2023-04-30T00:51:28;12.95;;;7.68;;
64387;SDS011;50709;52.648;4.764;2023-04-30T00:53:56;12.30;;;8.18;;
64387;SDS011;50709;52.648;4.764;2023-04-30T00:56:22;14.32;;;7.82;;
64387;SDS011;50709;52.648;4.764;2023-04-30T00:58:48;12.70;;;7.10;;
64387;SDS011;50709;52.648;4.764;2023-04-30T01:01:15;13.95;;;8.23;;
64387;SDS011;50709;52.648;4.764;2023-04-30T01:03:42;16.15;;;7.78;;
64387;SDS011;50709;52.648;4.764;2023-04-30T01:06:07;13.95;;;7.45;;
64387;SDS011;50709;52.648;4.764;2023-04-30T01:08:33;13.88;;;7.43;;
64387;SDS011;50709;52.648;4.764;2023-04-30T01:11:03;14.15;;;7.93;;
64387;SDS011;50709;52.648;4.764;2023-04-30T01:16:24;14.45;;;7.82;;
64387;SDS011;50709;52.648;4.764;2023-04-30T01:19:04;13.38;;;7.80;;
64387;SDS011;50709;52.648;4.764;2023-04-30T01:21:36;12.25;;;7.00;;
64387;SDS011;50709;52.648;4.764;2023-04-30T01:24:12;14.00;;;7.80;;
64387;SDS011;50709;52.648;4.764;2023-04-30T01:26:52;14.57;;;8.15;;
64387;SDS011;50709;52.648;4.764;2023-04-30T01:29:30;13.23;;;8.18;;
64387;SDS011;50709;52.648;4.764;2023-04-30T01:31:58;14.32;;;7.95;;
64387;SDS011;50709;52.648;4.764;2023-04-30T01:34:24;12.73;;;8.05;;
64387;SDS011;50709;52.648;4.764;2023-04-30T01:43:16;12.93;;;7.82;;
64387;SDS011;50709;52.648;4.764;2023-04-30T01:48:39;12.85;;;7.70;;
64387;SDS011;50709;52.648;4.764;2023-04-30T01:51:18;14.82;;;7.78;;
64387;SDS011;50709;52.648;4.764;2023-04-30T01:53:48;14.82;;;7.90;;
64387;SDS011;50709;52.648;4.764;2023-04-30T01:58:52;13.75;;;8.18;;
64387;SDS011;50709;52.648;4.764;2023-04-30T02:01:28;14.57;;;8.27;;
64387;SDS011;50709;52.648;4.764;2023-04-30T02:03:55;13.07;;;8.25;;
64387;SDS011;50709;52.648;4.764;2023-04-30T02:06:21;14.82;;;8.35;;
64387;SDS011;50709;52.648;4.764;2023-04-30T02:08:51;14.15;;;8.18;;
64387;SDS011;50709;52.648;4.764;2023-04-30T02:11:17;14.15;;;8.02;;
64387;SDS011;50709;52.648;4.764;2023-04-30T02:13:43;15.40;;;8.30;;
64387;SDS011;50709;52.648;4.764;2023-04-30T02:16:08;12.60;;;7.65;;
64387;SDS011;50709;52.648;4.764;2023-04-30T02:18:33;12.40;;;7.45;;
64387;SDS011;50709;52.648;4.764;2023-04-30T02:20:59;14.90;;;7.97;;
64387;SDS011;50709;52.648;4.764;2023-04-30T02:23:24;14.88;;;8.57;;
64387;SDS011;50709;52.648;4.764;2023-04-30T02:25:49;13.98;;;8.07;;
64387;SDS011;50709;52.648;4.764;2023-04-30T02:28:15;12.82;;;7.93;;
64387;SDS011;50709;52.648;4.764;2023-04-30T02:30:40;15.13;;;8.40;;
64387;SDS011;50709;52.648;4.764;2023-04-30T02:33:06;15.32;;;8.95;;
64387;SDS011;50709;52.648;4.764;2023-04-30T02:35:31;12.60;;;7.47;;
64387;SDS011;50709;52.648;4.764;2023-04-30T02:37:56;13.02;;;7.88;;
64387;SDS011;50709;52.648;4.764;2023-04-30T02:40:22;14.45;;;8.55;;
64387;SDS011;50709;52.648;4.764;2023-04-30T02:42:47;14.50;;;9.00;;
64387;SDS011;50709;52.648;4.764;2023-04-30T02:45:12;14.65;;;8.40;;
64387;SDS011;50709;52.648;4.764;2023-04-30T02:47:38;14.57;;;8.77;;
64387;SDS011;50709;52.648;4.764;2023-04-30T02:50:03;16.08;;;8.95;;
64387;SDS011;50709;52.648;4.764;2023-04-30T02:52:29;13.55;;;8.07;;
64387;SDS011;50709;52.648;4.764;2023-04-30T02:54:55;15.38;;;8.15;;
64387;SDS011;50709;52.648;4.764;2023-04-30T02:57:20;14.32;;;7.88;;
64387;SDS011;50709;52.648;4.764;2023-04-30T02:59:45;13.48;;;7.65;;
64387;SDS011;50709;52.648;4.764;2023-04-30T03:02:11;12.68;;;8.15;;
64387;SDS011;50709;52.648;4.764;2023-04-30T03:04:37;12.30;;;7.82;;
64387;SDS011;50709;52.648;4.764;2023-04-30T03:07:03;11.90;;;7.88;;
64387;SDS011;50709;52.648;4.764;2023-04-30T03:09:29;16.00;;;8.52;;
64387;SDS011;50709;52.648;4.764;2023-04-30T03:11:56;13.48;;;7.72;;
64387;SDS011;50709;52.648;4.764;2023-04-30T03:14:21;12.57;;;7.25;;
64387;SDS011;50709;52.648;4.764;2023-04-30T03:16:47;13.65;;;7.95;;
64387;SDS011;50709;52.648;4.764;2023-04-30T03:19:13;13.82;;;8.02;;
64387;SDS011;50709;52.648;4.764;2023-04-30T03:21:38;11.85;;;7.60;;
64387;SDS011;50709;52.648;4.764;2023-04-30T03:24:03;14.57;;;7.57;;
64387;SDS011;50709;52.648;4.764;2023-04-30T03:26:29;11.32;;;7.28;;
64387;SDS011;50709;52.648;4.764;2023-04-30T03:28:55;12.32;;;7.07;;
64387;SDS011;50709;52.648;4.764;2023-04-30T03:31:20;15.25;;;7.55;;
64387;SDS011;50709;52.648;4.764;2023-04-30T03:33:46;14.20;;;7.63;;
64387;SDS011;50709;52.648;4.764;2023-04-30T03:36:11;13.30;;;7.95;;
64387;SDS011;50709;52.648;4.764;2023-04-30T03:38:37;15.70;;;7.40;;
64387;SDS011;50709;52.648;4.764;2023-04-30T03:41:02;14.60;;;7.80;;
64387;SDS011;50709;52.648;4.764;2023-04-30T03:43:28;11.20;;;6.88;;
64387;SDS011;50709;52.648;4.764;2023-04-30T03:45:53;11.55;;;6.90;;
64387;SDS011;50709;52.648;4.764;2023-04-30T03:48:19;12.02;;;7.60;;
64387;SDS011;50709;52.648;4.764;2023-04-30T03:50:45;12.60;;;7.43;;
64387;SDS011;50709;52.648;4.764;2023-04-30T03:53:11;11.80;;;6.68;;
64387;SDS011;50709;52.648;4.764;2023-04-30T03:55:36;11.77;;;7.30;;
64387;SDS011;50709;52.648;4.764;2023-04-30T03:58:01;12.35;;;7.30;;
64387;SDS011;50709;52.648;4.764;2023-04-30T04:00:27;12.55;;;7.72;;
64387;SDS011;50709;52.648;4.764;2023-04-30T04:02:53;16.90;;;8.38;;
64387;SDS011;50709;52.648;4.764;2023-04-30T04:05:19;13.48;;;7.53;;
64387;SDS011;50709;52.648;4.764;2023-04-30T04:07:44;13.52;;;8.30;;
64387;SDS011;50709;52.648;4.764;2023-04-30T04:10:09;11.43;;;7.00;;
64387;SDS011;50709;52.648;4.764;2023-04-30T04:12:35;12.82;;;7.68;;
64387;SDS011;50709;52.648;4.764;2023-04-30T04:15:00;11.07;;;6.97;;
64387;SDS011;50709;52.648;4.764;2023-04-30T04:17:26;12.20;;;7.05;;
64387;SDS011;50709;52.648;4.764;2023-04-30T04:19:51;14.23;;;7.80;;
64387;SDS011;50709;52.648;4.764;2023-04-30T04:22:16;10.75;;;7.07;;
64387;SDS011;50709;52.648;4.764;2023-04-30T04:24:42;14.10;;;8.00;;
64387;SDS011;50709;52.648;4.764;2023-04-30T04:27:07;13.48;;;8.32;;
64387;SDS011;50709;52.648;4.764;2023-04-30T04:29:33;13.02;;;7.88;;
64387;SDS011;50709;52.648;4.764;2023-04-30T04:31:58;11.73;;;7.05;;
64387;SDS011;50709;52.648;4.764;2023-04-30T04:34:30;14.30;;;8.13;;
64387;SDS011;50709;52.648;4.764;2023-04-30T04:36:56;11.20;;;7.63;;
64387;SDS011;50709;52.648;4.764;2023-04-30T04:39:22;11.98;;;7.70;;
64387;SDS011;50709;52.648;4.764;2023-04-30T04:41:48;12.50;;;7.40;;
64387;SDS011;50709;52.648;4.764;2023-04-30T04:44:13;13.10;;;7.70;;
64387;SDS011;50709;52.648;4.764;2023-04-30T04:46:38;12.75;;;7.75;;
64387;SDS011;50709;52.648;4.764;2023-04-30T04:49:06;13.13;;;8.27;;
64387;SDS011;50709;52.648;4.764;2023-04-30T04:51:32;13.63;;;8.00;;
64387;SDS011;50709;52.648;4.764;2023-04-30T04:53:57;13.70;;;8.13;;
64387;SDS011;50709;52.648;4.764;2023-04-30T04:56:23;16.17;;;8.43;;
64387;SDS011;50709;52.648;4.764;2023-04-30T04:58:48;13.73;;;8.68;;
64387;SDS011;50709;52.648;4.764;2023-04-30T05:01:14;15.57;;;8.55;;
64387;SDS011;50709;52.648;4.764;2023-04-30T05:03:39;13.73;;;7.75;;
64387;SDS011;50709;52.648;4.764;2023-04-30T05:06:04;14.40;;;9.25;;
64387;SDS011;50709;52.648;4.764;2023-04-30T05:08:30;13.68;;;7.95;;
64387;SDS011;50709;52.648;4.764;2023-04-30T05:10:56;13.50;;;8.30;;
64387;SDS011;50709;52.648;4.764;2023-04-30T05:13:21;15.05;;;8.45;;
64387;SDS011;50709;52.648;4.764;2023-04-30T05:15:50;14.07;;;8.80;;
64387;SDS011;50709;52.648;4.764;2023-04-30T05:18:17;13.70;;;8.38;;
64387;SDS011;50709;52.648;4.764;2023-04-30T05:20:42;13.27;;;8.40;;
64387;SDS011;50709;52.648;4.764;2023-04-30T05:23:08;14.35;;;8.25;;
64387;SDS011;50709;52.648;4.764;2023-04-30T05:25:34;13.38;;;7.78;;
64387;SDS011;50709;52.648;4.764;2023-04-30T05:28:00;15.77;;;8.07;;
64387;SDS011;50709;52.648;4.764;2023-04-30T05:30:25;18.20;;;8.60;;
64387;SDS011;50709;52.648;4.764;2023-04-30T05:32:51;15.00;;;7.30;;
64387;SDS011;50709;52.648;4.764;2023-04-30T05:35:17;11.90;;;7.47;;
64387;SDS011;50709;52.648;4.764;2023-04-30T05:37:43;11.55;;;7.97;;
64387;SDS011;50709;52.648;4.764;2023-04-30T05:40:08;13.00;;;7.13;;
64387;SDS011;50709;52.648;4.764;2023-04-30T05:42:34;13.93;;;8.00;;
64387;SDS011;50709;52.648;4.764;2023-04-30T05:45:00;12.70;;;7.63;;
64387;SDS011;50709;52.648;4.764;2023-04-30T05:47:26;12.27;;;7.50;;
64387;SDS011;50709;52.648;4.764;2023-04-30T05:49:52;14.52;;;8.05;;
64387;SDS011;50709;52.648;4.764;2023-04-30T05:52:17;14.82;;;7.47;;
64387;SDS011;50709;52.648;4.764;2023-04-30T05:54:43;12.90;;;7.30;;
64387;SDS011;50709;52.648;4.764;2023-04-30T05:57:08;11.18;;;6.93;;
64387;SDS011;50709;52.648;4.764;2023-04-30T05:59:33;12.45;;;7.47;;
64387;SDS011;50709;52.648;4.764;2023-04-30T06:01:59;15.43;;;7.57;;
64387;SDS011;50709;52.648;4.764;2023-04-30T06:04:24;11.60;;;6.90;;
64387;SDS011;50709;52.648;4.764;2023-04-30T06:06:50;13.38;;;6.75;;
64387;SDS011;50709;52.648;4.764;2023-04-30T06:09:15;12.70;;;6.15;;
64387;SDS011;50709;52.648;4.764;2023-04-30T06:11:40;10.25;;;6.43;;
64387;SDS011;50709;52.648;4.764;2023-04-30T06:14:06;9.98;;;5.78;;
64387;SDS011;50709;52.648;4.764;2023-04-30T06:16:51;9.88;;;5.78;;
64387;SDS011;50709;52.648;4.764;2023-04-30T06:19:17;12.15;;;6.82;;
64387;SDS011;50709;52.648;4.764;2023-04-30T06:21:43;10.10;;;6.30;;
64387;SDS011;50709;52.648;4.764;2023-04-30T06:24:08;10.52;;;6.32;;
64387;SDS011;50709;52.648;4.764;2023-04-30T06:26:34;9.45;;;6.00;;
64387;SDS011;50709;52.648;4.764;2023-04-30T06:28:59;10.70;;;6.38;;
64387;SDS011;50709;52.648;4.764;2023-04-30T06:31:25;10.15;;;6.50;;
64387;SDS011;50709;52.648;4.764;2023-04-30T06:33:51;14.23;;;6.88;;
64387;SDS011;50709;52.648;4.764;2023-04-30T06:36:16;10.30;;;5.93;;
64387;SDS011;50709;52.648;4.764;2023-04-30T06:38:42;11.80;;;6.57;;
64387;SDS011;50709;52.648;4.764;2023-04-30T06:41:28;11.80;;;6.38;;
64387;SDS011;50709;52.648;4.764;2023-04-30T06:43:53;10.88;;;6.13;;
64387;SDS011;50709;52.648;4.764;2023-04-30T06:46:19;9.20;;;6.03;;
64387;SDS011;50709;52.648;4.764;2023-04-30T06:48:45;10.48;;;5.80;;
64387;SDS011;50709;52.648;4.764;2023-04-30T06:51:16;10.82;;;6.20;;
64387;SDS011;50709;52.648;4.764;2023-04-30T06:53:42;8.90;;;5.93;;
64387;SDS011;50709;52.648;4.764;2023-04-30T06:56:07;10.07;;;6.35;;
64387;SDS011;50709;52.648;4.764;2023-04-30T06:58:32;10.20;;;6.15;;
64387;SDS011;50709;52.648;4.764;2023-04-30T07:00:58;11.38;;;6.43;;
64387;SDS011;50709;52.648;4.764;2023-04-30T07:03:43;11.05;;;6.35;;
64387;SDS011;50709;52.648;4.764;2023-04-30T07:06:29;11.32;;;6.68;;
64387;SDS011;50709;52.648;4.764;2023-04-30T07:08:54;9.05;;;6.15;;
64387;SDS011;50709;52.648;4.764;2023-04-30T07:11:20;10.00;;;6.20;;
64387;SDS011;50709;52.648;4.764;2023-04-30T07:13:46;9.48;;;6.00;;
64387;SDS011;50709;52.648;4.764;2023-04-30T07:16:11;9.60;;;5.40;;
64387;SDS011;50709;52.648;4.764;2023-04-30T07:18:36;10.10;;;6.53;;
64387;SDS011;50709;52.648;4.764;2023-04-30T07:21:02;11.35;;;6.03;;
64387;SDS011;50709;52.648;4.764;2023-04-30T07:23:48;9.70;;;5.47;;
64387;SDS011;50709;52.648;4.764;2023-04-30T07:26:15;11.23;;;6.45;;
64387;SDS011;50709;52.648;4.764;2023-04-30T07:28:41;8.52;;;5.10;;
64387;SDS011;50709;52.648;4.764;2023-04-30T07:31:07;10.65;;;5.78;;
64387;SDS011;50709;52.648;4.764;2023-04-30T07:33:32;8.40;;;4.95;;
64387;SDS011;50709;52.648;4.764;2023-04-30T07:35:58;7.70;;;4.93;;
64387;SDS011;50709;52.648;4.764;2023-04-30T07:38:23;8.00;;;4.40;;
64387;SDS011;50709;52.648;4.764;2023-04-30T07:40:49;8.68;;;4.95;;
64387;SDS011;50709;52.648;4.764;2023-04-30T07:43:14;9.32;;;5.30;;
64387;SDS011;50709;52.648;4.764;2023-04-30T07:45:40;7.43;;;4.78;;
64387;SDS011;50709;52.648;4.764;2023-04-30T07:48:06;7.53;;;4.32;;
64387;SDS011;50709;52.648;4.764;2023-04-30T07:50:31;7.47;;;4.70;;
64387;SDS011;50709;52.648;4.764;2023-04-30T07:52:58;9.82;;;6.05;;
64387;SDS011;50709;52.648;4.764;2023-04-30T07:55:23;10.73;;;5.10;;
64387;SDS011;50709;52.648;4.764;2023-04-30T07:58:09;8.40;;;5.00;;
64387;SDS011;50709;52.648;4.764;2023-04-30T08:00:35;9.98;;;4.82;;
64387;SDS011;50709;52.648;4.764;2023-04-30T08:03:02;7.13;;;4.90;;
64387;SDS011;50709;52.648;4.764;2023-04-30T08:05:28;8.95;;;5.07;;
64387;SDS011;50709;52.648;4.764;2023-04-30T08:07:53;8.00;;;4.95;;
64387;SDS011;50709;52.648;4.764;2023-04-30T08:10:19;8.77;;;4.57;;
64387;SDS011;50709;52.648;4.764;2023-04-30T08:12:45;7.90;;;5.13;;
64387;SDS011;50709;52.648;4.764;2023-04-30T08:15:10;10.52;;;5.05;;
64387;SDS011;50709;52.648;4.764;2023-04-30T08:17:57;10.38;;;5.68;;
64387;SDS011;50709;52.648;4.764;2023-04-30T08:20:23;8.98;;;5.43;;
64387;SDS011;50709;52.648;4.764;2023-04-30T08:22:48;7.22;;;4.68;;
64387;SDS011;50709;52.648;4.764;2023-04-30T08:25:14;9.05;;;4.90;;
64387;SDS011;50709;52.648;4.764;2023-04-30T08:27:39;7.97;;;4.65;;
64387;SDS011;50709;52.648;4.764;2023-04-30T08:30:05;10.02;;;5.15;;
64387;SDS011;50709;52.648;4.764;2023-04-30T08:32:34;8.30;;;5.25;;
64387;SDS011;50709;52.648;4.764;2023-04-30T08:35:01;8.77;;;4.75;;
64387;SDS011;50709;52.648;4.764;2023-04-30T08:37:28;8.38;;;4.90;;
64387;SDS011;50709;52.648;4.764;2023-04-30T08:39:53;9.18;;;5.57;;
64387;SDS011;50709;52.648;4.764;2023-04-30T08:42:19;7.43;;;4.50;;
64387;SDS011;50709;52.648;4.764;2023-04-30T08:44:48;8.95;;;5.50;;
64387;SDS011;50709;52.648;4.764;2023-04-30T08:47:14;8.80;;;5.03;;
64387;SDS011;50709;52.648;4.764;2023-04-30T08:49:42;9.02;;;5.20;;
64387;SDS011;50709;52.648;4.764;2023-04-30T08:52:07;8.85;;;5.30;;
64387;SDS011;50709;52.648;4.764;2023-04-30T08:54:36;12.57;;;5.18;;
64387;SDS011;50709;52.648;4.764;2023-04-30T08:57:02;6.85;;;4.75;;
64387;SDS011;50709;52.648;4.764;2023-04-30T08:59:28;7.18;;;4.80;;
64387;SDS011;50709;52.648;4.764;2023-04-30T09:01:54;8.35;;;5.72;;
64387;SDS011;50709;52.648;4.764;2023-04-30T09:04:19;8.65;;;5.35;;
64387;SDS011;50709;52.648;4.764;2023-04-30T09:06:45;9.35;;;5.22;;
64387;SDS011;50709;52.648;4.764;2023-04-30T09:09:11;8.30;;;4.95;;
64387;SDS011;50709;52.648;4.764;2023-04-30T09:11:38;9.20;;;4.90;;
64387;SDS011;50709;52.648;4.764;2023-04-30T09:14:03;7.38;;;4.10;;
64387;SDS011;50709;52.648;4.764;2023-04-30T09:16:29;7.60;;;5.10;;
64387;SDS011;50709;52.648;4.764;2023-04-30T09:19:21;7.32;;;4.40;;
64387;SDS011;50709;52.648;4.764;2023-04-30T09:21:50;7.32;;;4.63;;
64387;SDS011;50709;52.648;4.764;2023-04-30T09:24:16;8.98;;;4.78;;
64387;SDS011;50709;52.648;4.764;2023-04-30T09:26:42;6.43;;;4.38;;
64387;SDS011;50709;52.648;4.764;2023-04-30T09:29:07;9.15;;;4.47;;
64387;SDS011;50709;52.648;4.764;2023-04-30T09:31:34;8.63;;;5.10;;
64387;SDS011;50709;52.648;4.764;2023-04-30T09:34:01;7.78;;;4.80;;
64387;SDS011;50709;52.648;4.764;2023-04-30T09:36:27;10.68;;;5.30;;
64387;SDS011;50709;52.648;4.764;2023-04-30T09:38:53;8.30;;;5.22;;
64387;SDS011;50709;52.648;4.764;2023-04-30T09:41:22;11.25;;;4.97;;
64387;SDS011;50709;52.648;4.764;2023-04-30T09:46:20;9.98;;;4.60;;
64387;SDS011;50709;52.648;4.764;2023-04-30T09:48:55;8.18;;;4.93;;
64387;SDS011;50709;52.648;4.764;2023-04-30T09:51:25;7.30;;;4.28;;
64387;SDS011;50709;52.648;4.764;2023-04-30T09:53:54;8.18;;;4.53;;
64387;SDS011;50709;52.648;4.764;2023-04-30T09:56:21;7.07;;;4.80;;
64387;SDS011;50709;52.648;4.764;2023-04-30T09:58:51;8.38;;;4.63;;
64387;SDS011;50709;52.648;4.764;2023-04-30T10:01:18;7.97;;;4.50;;
64387;SDS011;50709;52.648;4.764;2023-04-30T10:03:46;6.28;;;4.25;;
64387;SDS011;50709;52.648;4.764;2023-04-30T10:06:14;8.07;;;4.38;;
64387;SDS011;50709;52.648;4.764;2023-04-30T10:08:43;7.13;;;4.43;;
64387;SDS011;50709;52.648;4.764;2023-04-30T10:11:12;6.53;;;4.68;;
64387;SDS011;50709;52.648;4.764;2023-04-30T10:13:44;7.82;;;4.50;;
64387;SDS011;50709;52.648;4.764;2023-04-30T10:19:19;8.88;;;4.95;;
64387;SDS011;50709;52.648;4.764;2023-04-30T10:21:56;8.55;;;4.07;;
64387;SDS011;50709;52.648;4.764;2023-04-30T10:24:21;8.85;;;4.70;;
64387;SDS011;50709;52.648;4.764;2023-04-30T10:26:48;7.75;;;4.15;;
64387;SDS011;50709;52.648;4.764;2023-04-30T10:29:14;6.20;;;4.05;;
64387;SDS011;50709;52.648;4.764;2023-04-30T10:31:42;6.47;;;4.00;;
64387;SDS011;50709;52.648;4.764;2023-04-30T10:34:18;7.60;;;3.88;;
64387;SDS011;50709;52.648;4.764;2023-04-30T10:37:47;6.38;;;3.97;;
64387;SDS011;50709;52.648;4.764;2023-04-30T10:39:52;5.53;;;3.67;;
64387;SDS011;50709;52.648;4.764;2023-04-30T10:42:19;5.68;;;3.80;;
64387;SDS011;50709;52.648;4.764;2023-04-30T10:44:45;8.15;;;3.85;;
64387;SDS011;50709;52.648;4.764;2023-04-30T10:47:10;6.47;;;4.05;;
64387;SDS011;50709;52.648;4.764;2023-04-30T10:49:36;8.82;;;3.53;;
64387;SDS011;50709;52.648;4.764;2023-04-30T10:52:02;5.20;;;3.50;;
64387;SDS011;50709;52.648;4.764;2023-04-30T10:54:32;5.35;;;3.63;;
64387;SDS011;50709;52.648;4.764;2023-04-30T10:57:14;5.97;;;3.47;;
64387;SDS011;50709;52.648;4.764;2023-04-30T10:59:51;5.68;;;3.95;;
64387;SDS011;50709;52.648;4.764;2023-04-30T11:02:40;5.63;;;3.53;;
64387;SDS011;50709;52.648;4.764;2023-04-30T11:05:17;6.00;;;3.30;;
64387;SDS011;50709;52.648;4.764;2023-04-30T11:07:45;7.95;;;3.55;;
64387;SDS011;50709;52.648;4.764;2023-04-30T11:10:31;4.38;;;3.17;;
64387;SDS011;50709;52.648;4.764;2023-04-30T11:13:02;4.75;;;3.10;;
64387;SDS011;50709;52.648;4.764;2023-04-30T11:15:38;5.38;;;3.17;;
64387;SDS011;50709;52.648;4.764;2023-04-30T11:18:06;4.80;;;3.10;;
64387;SDS011;50709;52.648;4.764;2023-04-30T11:20:32;5.85;;;3.20;;
64387;SDS011;50709;52.648;4.764;2023-04-30T11:23:24;5.82;;;3.47;;
64387;SDS011;50709;52.648;4.764;2023-04-30T11:25:52;5.78;;;3.00;;
64387;SDS011;50709;52.648;4.764;2023-04-30T11:28:23;4.55;;;3.15;;
64387;SDS011;50709;52.648;4.764;2023-04-30T11:30:53;4.53;;;2.97;;
64387;SDS011;50709;52.648;4.764;2023-04-30T11:33:20;5.65;;;3.05;;
64387;SDS011;50709;52.648;4.764;2023-04-30T11:35:47;5.70;;;3.22;;
64387;SDS011;50709;52.648;4.764;2023-04-30T11:38:34;4.07;;;2.67;;
64387;SDS011;50709;52.648;4.764;2023-04-30T11:41:02;5.38;;;3.42;;
64387;SDS011;50709;52.648;4.764;2023-04-30T11:43:29;5.07;;;2.88;;
64387;SDS011;50709;52.648;4.764;2023-04-30T11:46:14;3.92;;;2.72;;
64387;SDS011;50709;52.648;4.764;2023-04-30T11:48:42;5.40;;;3.03;;
64387;SDS011;50709;52.648;4.764;2023-04-30T11:53:40;6.00;;;3.05;;
64387;SDS011;50709;52.648;4.764;2023-04-30T11:56:27;6.53;;;3.33;;
64387;SDS011;50709;52.648;4.764;2023-04-30T11:58:53;5.32;;;3.22;;
64387;SDS011;50709;52.648;4.764;2023-04-30T12:01:20;5.28;;;3.33;;
64387;SDS011;50709;52.648;4.764;2023-04-30T12:03:49;6.20;;;3.05;;
64387;SDS011;50709;52.648;4.764;2023-04-30T12:06:26;5.22;;;2.90;;
64387;SDS011;50709;52.648;4.764;2023-04-30T12:08:53;8.85;;;3.20;;
64387;SDS011;50709;52.648;4.764;2023-04-30T12:11:26;4.82;;;3.33;;
64387;SDS011;50709;52.648;4.764;2023-04-30T12:16:46;4.40;;;3.05;;
64387;SDS011;50709;52.648;4.764;2023-04-30T12:19:14;4.93;;;3.30;;
64387;SDS011;50709;52.648;4.764;2023-04-30T12:21:41;3.90;;;2.67;;
64387;SDS011;50709;52.648;4.764;2023-04-30T12:24:12;4.25;;;2.75;;
64387;SDS011;50709;52.648;4.764;2023-04-30T12:26:38;5.22;;;3.33;;
64387;SDS011;50709;52.648;4.764;2023-04-30T12:29:07;5.00;;;3.38;;
64387;SDS011;50709;52.648;4.764;2023-04-30T12:31:35;5.47;;;2.88;;
64387;SDS011;50709;52.648;4.764;2023-04-30T12:34:04;6.65;;;3.45;;
64387;SDS011;50709;52.648;4.764;2023-04-30T12:36:31;5.72;;;3.00;;
64387;SDS011;50709;52.648;4.764;2023-04-30T12:39:10;4.72;;;2.47;;
64387;SDS011;50709;52.648;4.764;2023-04-30T12:41:58;5.60;;;3.08;;
64387;SDS011;50709;52.648;4.764;2023-04-30T12:44:25;5.75;;;2.70;;
64387;SDS011;50709;52.648;4.764;2023-04-30T12:46:52;4.90;;;2.90;;
64387;SDS011;50709;52.648;4.764;2023-04-30T12:49:21;5.88;;;3.28;;
64387;SDS011;50709;52.648;4.764;2023-04-30T12:52:08;4.75;;;2.97;;
64387;SDS011;50709;52.648;4.764;2023-04-30T12:54:35;4.60;;;2.85;;
64387;SDS011;50709;52.648;4.764;2023-04-30T12:57:06;5.63;;;3.20;;
64387;SDS011;50709;52.648;4.764;2023-04-30T12:59:35;6.63;;;2.95;;
64387;SDS011;50709;52.648;4.764;2023-04-30T13:02:06;3.47;;;2.42;;
64387;SDS011;50709;52.648;4.764;2023-04-30T13:04:35;6.40;;;3.08;;
64387;SDS011;50709;52.648;4.764;2023-04-30T13:07:01;5.00;;;2.70;;
64387;SDS011;50709;52.648;4.764;2023-04-30T13:09:27;5.68;;;3.17;;
64387;SDS011;50709;52.648;4.764;2023-04-30T13:11:53;6.65;;;2.80;;
64387;SDS011;50709;52.648;4.764;2023-04-30T13:14:18;5.82;;;3.03;;
64387;SDS011;50709;52.648;4.764;2023-04-30T13:16:44;6.22;;;2.80;;
64387;SDS011;50709;52.648;4.764;2023-04-30T13:19:10;6.70;;;3.20;;
64387;SDS011;50709;52.648;4.764;2023-04-30T13:21:36;5.95;;;3.25;;
64387;SDS011;50709;52.648;4.764;2023-04-30T13:24:02;5.95;;;3.13;;
64387;SDS011;50709;52.648;4.764;2023-04-30T13:26:28;6.57;;;2.90;;
64387;SDS011;50709;52.648;4.764;2023-04-30T13:28:53;5.60;;;3.60;;
64387;SDS011;50709;52.648;4.764;2023-04-30T13:31:19;5.60;;;2.85;;
64387;SDS011;50709;52.648;4.764;2023-04-30T13:33:45;7.28;;;3.78;;
64387;SDS011;50709;52.648;4.764;2023-04-30T13:36:11;4.97;;;3.00;;
64387;SDS011;50709;52.648;4.764;2023-04-30T13:39:00;6.03;;;3.65;;
64387;SDS011;50709;52.648;4.764;2023-04-30T13:41:25;5.32;;;3.33;;
64387;SDS011;50709;52.648;4.764;2023-04-30T13:43:51;6.30;;;3.42;;
64387;SDS011;50709;52.648;4.764;2023-04-30T13:46:17;6.15;;;3.42;;
64387;SDS011;50709;52.648;4.764;2023-04-30T13:48:43;6.50;;;4.35;;
64387;SDS011;50709;52.648;4.764;2023-04-30T13:51:12;6.15;;;3.03;;
64387;SDS011;50709;52.648;4.764;2023-04-30T13:53:38;6.65;;;3.17;;
64387;SDS011;50709;52.648;4.764;2023-04-30T13:56:04;4.78;;;2.85;;
64387;SDS011;50709;52.648;4.764;2023-04-30T13:58:30;6.90;;;2.97;;
64387;SDS011;50709;52.648;4.764;2023-04-30T14:00:56;6.90;;;3.40;;
64387;SDS011;50709;52.648;4.764;2023-04-30T14:03:22;6.15;;;2.70;;
64387;SDS011;50709;52.648;4.764;2023-04-30T14:05:48;7.75;;;3.00;;
64387;SDS011;50709;52.648;4.764;2023-04-30T14:08:13;6.93;;;3.00;;
64387;SDS011;50709;52.648;4.764;2023-04-30T14:10:39;4.95;;;3.17;;
64387;SDS011;50709;52.648;4.764;2023-04-30T14:13:04;5.63;;;2.92;;
64387;SDS011;50709;52.648;4.764;2023-04-30T14:15:30;4.68;;;3.03;;
64387;SDS011;50709;52.648;4.764;2023-04-30T14:18:00;4.65;;;2.90;;
64387;SDS011;50709;52.648;4.764;2023-04-30T14:20:26;4.53;;;2.80;;
64387;SDS011;50709;52.648;4.764;2023-04-30T14:22:52;6.47;;;3.13;;
64387;SDS011;50709;52.648;4.764;2023-04-30T14:25:17;4.63;;;2.90;;
64387;SDS011;50709;52.648;4.764;2023-04-30T14:27:43;4.60;;;3.03;;
64387;SDS011;50709;52.648;4.764;2023-04-30T14:30:08;4.82;;;3.03;;
64387;SDS011;50709;52.648;4.764;2023-04-30T14:32:34;5.30;;;3.13;;
64387;SDS011;50709;52.648;4.764;2023-04-30T14:35:01;6.18;;;3.53;;
64387;SDS011;50709;52.648;4.764;2023-04-30T14:37:27;5.40;;;3.42;;
64387;SDS011;50709;52.648;4.764;2023-04-30T14:39:53;4.10;;;2.92;;
64387;SDS011;50709;52.648;4.764;2023-04-30T14:42:18;5.72;;;3.17;;
64387;SDS011;50709;52.648;4.764;2023-04-30T14:44:45;6.32;;;3.28;;
64387;SDS011;50709;52.648;4.764;2023-04-30T14:47:10;5.40;;;3.00;;
64387;SDS011;50709;52.648;4.764;2023-04-30T14:49:37;4.85;;;2.83;;
64387;SDS011;50709;52.648;4.764;2023-04-30T14:52:02;5.68;;;3.35;;
64387;SDS011;50709;52.648;4.764;2023-04-30T14:54:27;5.03;;;3.30;;
64387;SDS011;50709;52.648;4.764;2023-04-30T14:56:53;6.97;;;2.88;;
64387;SDS011;50709;52.648;4.764;2023-04-30T14:59:19;6.25;;;2.97;;
64387;SDS011;50709;52.648;4.764;2023-04-30T15:01:44;5.97;;;3.28;;
64387;SDS011;50709;52.648;4.764;2023-04-30T15:04:10;6.18;;;3.08;;
64387;SDS011;50709;52.648;4.764;2023-04-30T15:06:36;6.07;;;2.83;;
64387;SDS011;50709;52.648;4.764;2023-04-30T15:09:02;7.80;;;3.40;;